createdAt,value
2023-02-22T00:01:50.791Z,4.20
2023-02-22T00:04:21.056Z,4.13
2023-02-22T00:06:48.934Z,4.68
2023-02-22T00:09:20.387Z,4.60
2023-02-22T00:11:48.559Z,3.60
2023-02-22T00:14:15.274Z,3.90
2023-02-22T00:16:41.865Z,3.47
2023-02-22T00:19:08.621Z,3.38
2023-02-22T00:21:35.154Z,3.85
2023-02-22T00:24:16.933Z,4.03
2023-02-22T00:26:43.405Z,4.40
2023-02-22T00:29:09.900Z,4.30
2023-02-22T00:31:39.509Z,4.55
2023-02-22T00:34:06.000Z,4.47
2023-02-22T00:36:32.496Z,4.20
2023-02-22T00:38:58.986Z,3.55
2023-02-22T00:41:25.541Z,3.55
2023-02-22T00:43:52.054Z,3.63
2023-02-22T00:46:19.159Z,4.00
2023-02-22T00:48:45.773Z,3.67
2023-02-22T00:51:12.343Z,3.60
2023-02-22T00:53:38.848Z,3.63
2023-02-22T00:56:06.267Z,3.30
2023-02-22T00:58:32.742Z,4.00
2023-02-22T01:00:59.259Z,3.70
2023-02-22T01:03:25.745Z,4.68
2023-02-22T01:05:52.475Z,3.75
2023-02-22T01:08:19.114Z,4.25
2023-02-22T01:10:46.632Z,3.85
2023-02-22T01:13:13.241Z,4.05
2023-02-22T01:15:42.998Z,4.22
2023-02-22T01:18:10.069Z,3.80
2023-02-22T01:20:36.895Z,3.20
2023-02-22T01:23:06.738Z,3.15
2023-02-22T01:25:34.597Z,3.35
2023-02-22T01:28:03.399Z,3.72
2023-02-22T01:30:33.093Z,3.60
2023-02-22T01:33:01.377Z,3.28
2023-02-22T01:35:31.097Z,3.58
2023-02-22T01:37:58.332Z,3.55
2023-02-22T01:40:32.710Z,3.22
2023-02-22T01:43:01.772Z,3.70
2023-02-22T01:45:31.045Z,3.50
2023-02-22T01:48:02.348Z,3.65
2023-02-22T01:50:31.728Z,4.15
2023-02-22T01:52:58.636Z,3.45
2023-02-22T01:55:25.694Z,3.78
2023-02-22T01:57:52.217Z,3.65
2023-02-22T02:00:21.366Z,3.67
2023-02-22T02:02:53.390Z,3.88
2023-02-22T02:07:52.524Z,3.58
2023-02-22T02:10:21.468Z,3.65
2023-02-22T02:12:49.969Z,4.22
2023-02-22T02:15:22.382Z,3.65
2023-02-22T02:17:50.674Z,3.78
2023-02-22T02:20:42.157Z,3.80
2023-02-22T02:23:26.875Z,3.13
2023-02-22T02:26:30.794Z,3.10
2023-02-22T02:29:12.421Z,3.60
2023-02-22T02:32:07.316Z,3.60
2023-02-22T02:34:52.649Z,3.00
2023-02-22T02:37:45.084Z,3.47
2023-02-22T02:40:32.019Z,2.35
2023-02-22T02:43:12.275Z,3.10
2023-02-22T02:45:47.411Z,2.78
2023-02-22T02:48:17.601Z,2.88
2023-02-22T02:50:47.801Z,3.00
2023-02-22T02:53:20.808Z,2.97
2023-02-22T02:55:47.525Z,2.80
2023-02-22T02:58:21.258Z,3.53
2023-02-22T03:00:50.577Z,3.38
2023-02-22T03:03:33.386Z,3.95
2023-02-22T03:06:17.875Z,3.40
2023-02-22T03:11:48.271Z,2.92
2023-02-22T03:14:28.441Z,3.55
2023-02-22T03:17:41.412Z,3.40
2023-02-22T03:20:35.334Z,3.60
2023-02-22T03:23:38.186Z,3.30
2023-02-22T03:26:09.375Z,3.78
2023-02-22T03:28:41.059Z,3.83
2023-02-22T03:31:22.716Z,3.30
2023-02-22T03:33:54.356Z,3.45
2023-02-22T03:36:49.413Z,3.25
2023-02-22T03:39:20.274Z,3.30
2023-02-22T03:41:51.348Z,3.40
2023-02-22T03:44:26.595Z,3.20
2023-02-22T03:46:56.767Z,3.50
2023-02-22T03:49:34.636Z,3.22
2023-02-22T03:52:02.997Z,3.17
2023-02-22T03:54:32.055Z,3.00
2023-02-22T03:57:24.919Z,3.30
2023-02-22T04:00:01.957Z,3.55
2023-02-22T04:02:28.852Z,3.20
2023-02-22T04:04:55.510Z,2.70
2023-02-22T04:07:22.046Z,3.03
2023-02-22T04:09:50.896Z,2.95
2023-02-22T04:12:17.465Z,2.80
2023-02-22T04:15:06.045Z,3.10
2023-02-22T04:17:32.688Z,3.15
2023-02-22T04:20:00.431Z,3.22
2023-02-22T04:22:34.090Z,3.22
2023-02-22T04:25:00.645Z,3.15
2023-02-22T04:27:27.612Z,2.70
2023-02-22T04:29:56.198Z,3.15
2023-02-22T04:32:22.842Z,3.35
2023-02-22T04:34:49.468Z,3.20
2023-02-22T04:37:16.154Z,3.33
2023-02-22T04:39:42.692Z,3.67
2023-02-22T04:42:09.368Z,3.60
2023-02-22T04:44:35.939Z,3.25
2023-02-22T04:47:02.518Z,3.30
2023-02-22T04:49:29.072Z,3.40
2023-02-22T04:51:56.545Z,3.53
2023-02-22T04:54:30.640Z,3.22
2023-02-22T04:56:57.704Z,3.10
2023-02-22T04:59:24.447Z,2.78
2023-02-22T05:04:24.951Z,3.17
2023-02-22T05:06:52.733Z,2.97
2023-02-22T05:09:21.178Z,3.05
2023-02-22T05:11:47.703Z,2.85
2023-02-22T05:14:14.196Z,2.65
2023-02-22T05:16:40.860Z,4.18
2023-02-22T05:19:07.455Z,3.10
2023-02-22T05:21:33.964Z,2.50
2023-02-22T05:24:00.482Z,3.03
2023-02-22T05:26:27.121Z,3.60
2023-02-22T05:28:53.607Z,3.55
2023-02-22T05:31:20.463Z,2.95
2023-02-22T05:33:48.445Z,3.53
2023-02-22T05:36:15.019Z,3.45
2023-02-22T05:38:43.443Z,3.13
2023-02-22T05:41:11.634Z,3.20
2023-02-22T05:43:39.597Z,2.85
2023-02-22T05:46:06.389Z,3.08
2023-02-22T05:48:33.017Z,2.92
2023-02-22T05:50:59.488Z,2.97
2023-02-22T05:53:26.258Z,3.78
2023-02-22T05:55:52.777Z,3.72
2023-02-22T05:58:19.318Z,3.05
2023-02-22T06:00:45.842Z,2.92
2023-02-22T06:03:12.679Z,3.45
2023-02-22T06:05:40.779Z,3.65
2023-02-22T06:08:07.923Z,4.03
2023-02-22T06:10:34.717Z,3.30
2023-02-22T06:13:04.781Z,3.45
2023-02-22T06:15:31.320Z,4.25
2023-02-22T06:18:00.554Z,3.83
2023-02-22T06:20:30.481Z,3.40
2023-02-22T06:22:59.115Z,3.47
2023-02-22T06:25:31.357Z,3.15
2023-02-22T06:27:59.060Z,3.40
2023-02-22T06:30:27.925Z,4.20
2023-02-22T06:32:54.826Z,3.80
2023-02-22T06:35:22.213Z,3.75
2023-02-22T06:37:48.901Z,3.58
2023-02-22T06:40:15.901Z,3.70
2023-02-22T06:42:42.461Z,4.18
2023-02-22T06:45:10.322Z,4.28
2023-02-22T06:47:41.222Z,3.58
2023-02-22T06:50:20.322Z,4.20
2023-02-22T06:52:47.941Z,4.72
2023-02-22T06:55:19.771Z,4.13
2023-02-22T06:57:46.396Z,2.92
2023-02-22T07:00:15.253Z,3.20
2023-02-22T07:02:42.682Z,3.35
2023-02-22T07:05:12.188Z,2.70
2023-02-22T07:07:39.663Z,4.53
2023-02-22T07:10:22.892Z,4.80
2023-02-22T07:12:49.411Z,5.13
2023-02-22T07:15:18.165Z,3.70
2023-02-22T07:17:45.301Z,4.18
2023-02-22T07:20:11.864Z,4.30
2023-02-22T07:22:39.145Z,4.10
2023-02-22T07:25:09.952Z,4.68
2023-02-22T07:27:40.063Z,4.13
2023-02-22T07:30:16.623Z,4.20
2023-02-22T07:32:44.332Z,4.20
2023-02-22T07:35:25.668Z,4.18
2023-02-22T07:37:55.424Z,3.97
2023-02-22T07:40:23.683Z,4.47
2023-02-22T07:42:57.203Z,4.43
2023-02-22T07:45:26.249Z,3.75
2023-02-22T07:47:53.167Z,3.88
2023-02-22T07:50:21.371Z,3.95
2023-02-22T07:52:49.974Z,4.20
2023-02-22T07:55:18.351Z,4.20
2023-02-22T07:57:49.740Z,3.67
2023-02-22T08:00:24.642Z,4.60
2023-02-22T08:02:51.342Z,4.13
2023-02-22T08:05:18.661Z,3.85
2023-02-22T08:07:45.225Z,4.28
2023-02-22T08:10:14.298Z,3.58
2023-02-22T08:12:40.863Z,3.63
2023-02-22T08:15:09.512Z,3.80
2023-02-22T08:17:36.021Z,5.80
2023-02-22T08:20:03.165Z,5.88
2023-02-22T08:22:29.673Z,5.57
2023-02-22T08:24:56.233Z,7.10
2023-02-22T08:27:30.063Z,10.40
2023-02-22T08:29:57.023Z,6.38
2023-02-22T08:32:24.043Z,9.93
2023-02-22T08:34:51.364Z,11.05
2023-02-22T08:37:19.121Z,7.40
2023-02-22T08:39:45.806Z,10.75
2023-02-22T08:42:12.382Z,12.02
2023-02-22T08:44:39.824Z,12.57
2023-02-22T08:47:07.094Z,12.93
2023-02-22T08:49:33.910Z,15.73
2023-02-22T08:52:00.897Z,15.65
2023-02-22T08:54:27.868Z,13.05
2023-02-22T08:56:54.536Z,8.35
2023-02-22T08:59:21.055Z,7.18
2023-02-22T09:01:47.628Z,5.35
2023-02-22T09:04:15.289Z,11.63
2023-02-22T09:06:42.541Z,8.32
2023-02-22T09:09:10.263Z,6.93
2023-02-22T09:11:36.783Z,8.10
2023-02-22T09:14:03.355Z,8.15
2023-02-22T09:16:31.333Z,6.63
2023-02-22T09:18:57.926Z,6.80
2023-02-22T09:21:24.499Z,7.55
2023-02-22T09:23:54.608Z,6.03
2023-02-22T09:26:23.546Z,6.05
2023-02-22T09:28:52.204Z,6.38
2023-02-22T09:31:19.137Z,6.35
2023-02-22T09:33:47.422Z,6.03
2023-02-22T09:36:14.310Z,6.43
2023-02-22T09:38:41.113Z,6.70
2023-02-22T09:41:20.352Z,6.35
2023-02-22T09:44:03.335Z,7.13
2023-02-22T09:46:38.353Z,7.30
2023-02-22T09:49:22.380Z,15.32
2023-02-22T09:52:24.558Z,7.68
2023-02-22T09:55:08.561Z,6.78
2023-02-22T09:57:42.700Z,6.18
2023-02-22T10:00:15.190Z,7.13
2023-02-22T10:03:00.360Z,8.45
2023-02-22T10:05:33.848Z,7.60
2023-02-22T10:08:05.933Z,7.70
2023-02-22T10:10:36.731Z,7.57
2023-02-22T10:13:18.496Z,8.13
2023-02-22T10:15:51.613Z,9.27
2023-02-22T10:18:36.265Z,8.50
2023-02-22T10:21:07.544Z,8.68
2023-02-22T10:23:48.253Z,9.43
2023-02-22T10:26:23.696Z,11.85
2023-02-22T10:28:59.215Z,10.98
2023-02-22T10:31:30.664Z,12.30
2023-02-22T10:34:01.060Z,10.30
2023-02-22T10:36:28.055Z,10.07
2023-02-22T10:38:54.622Z,11.30
2023-02-22T10:41:28.820Z,11.55
2023-02-22T10:43:55.946Z,11.98
2023-02-22T10:46:24.884Z,11.75
2023-02-22T10:48:54.382Z,13.35
2023-02-22T10:51:21.023Z,13.60
2023-02-22T10:54:01.424Z,12.10
2023-02-22T10:56:28.501Z,12.63
2023-02-22T10:58:57.748Z,13.05
2023-02-22T11:01:33.364Z,13.18
2023-02-22T11:04:19.416Z,12.82
2023-02-22T11:06:48.537Z,13.85
2023-02-22T11:09:22.592Z,13.45
2023-02-22T11:11:53.673Z,13.00
2023-02-22T11:14:29.011Z,13.45
2023-02-22T11:16:58.543Z,14.75
2023-02-22T11:19:28.192Z,13.77
2023-02-22T11:22:17.425Z,13.50
2023-02-22T11:24:57.984Z,13.30
2023-02-22T11:27:28.393Z,14.43
2023-02-22T11:30:17.022Z,12.88
2023-02-22T11:32:46.694Z,13.02
2023-02-22T11:35:29.725Z,14.02
2023-02-22T11:38:16.096Z,13.75
2023-02-22T11:40:44.211Z,13.50
2023-02-22T11:43:19.241Z,13.90
2023-02-22T11:46:11.289Z,13.15
2023-02-22T11:48:44.336Z,13.80
2023-02-22T11:51:21.932Z,14.25
2023-02-22T11:54:08.751Z,13.27
2023-02-22T11:56:48.285Z,13.55
2023-02-22T11:59:59.117Z,13.95
2023-02-22T12:02:57.425Z,13.40
2023-02-22T12:05:40.526Z,12.52
2023-02-22T12:08:28.630Z,13.35
2023-02-22T12:11:02.445Z,13.65
2023-02-22T12:13:47.494Z,13.43
2023-02-22T12:16:25.120Z,14.35
2023-02-22T12:19:20.135Z,13.10
2023-02-22T12:21:54.064Z,13.80
2023-02-22T12:24:24.984Z,13.20
2023-02-22T12:26:58.686Z,14.10
2023-02-22T12:31:57.591Z,13.18
2023-02-22T12:34:40.867Z,14.25
2023-02-22T12:37:20.111Z,13.77
2023-02-22T12:39:55.133Z,13.38
2023-02-22T12:42:32.678Z,14.10
2023-02-22T12:45:16.882Z,13.27
2023-02-22T12:47:52.587Z,13.50
2023-02-22T12:50:26.207Z,13.48
2023-02-22T12:56:30.223Z,12.60
2023-02-22T12:59:15.276Z,13.57
2023-02-22T13:01:45.526Z,12.80
2023-02-22T13:04:20.437Z,12.73
2023-02-22T13:06:53.900Z,12.63
2023-02-22T13:09:39.771Z,11.17
2023-02-22T13:12:27.933Z,13.55
2023-02-22T13:15:22.467Z,12.32
2023-02-22T13:18:03.329Z,12.65
2023-02-22T13:20:36.607Z,12.07
2023-02-22T13:23:06.499Z,13.32
2023-02-22T13:25:50.491Z,13.90
2023-02-22T13:31:06.847Z,12.43
2023-02-22T13:34:02.881Z,12.57
2023-02-22T13:36:58.063Z,14.48
2023-02-22T13:39:43.440Z,13.40
2023-02-22T13:42:34.703Z,14.20
2023-02-22T13:45:19.916Z,13.40
2023-02-22T13:48:11.158Z,14.68
2023-02-22T13:51:06.661Z,12.80
2023-02-22T13:53:44.234Z,12.35
2023-02-22T13:56:11.935Z,12.77
2023-02-22T13:58:50.715Z,13.85
2023-02-22T14:01:48.293Z,13.05
2023-02-22T14:04:26.627Z,11.45
2023-02-22T14:07:00.497Z,12.23
2023-02-22T14:09:46.934Z,12.20
2023-02-22T14:12:36.451Z,12.32
2023-02-22T14:15:28.719Z,12.15
2023-02-22T14:18:01.266Z,11.95
2023-02-22T14:20:35.890Z,12.82
2023-02-22T14:23:24.210Z,14.07
2023-02-22T14:25:51.448Z,13.88
2023-02-22T14:28:33.314Z,12.45
2023-02-22T14:31:17.416Z,13.25
2023-02-22T14:33:57.248Z,13.60
2023-02-22T14:36:37.923Z,12.48
2023-02-22T14:39:15.692Z,13.07
2023-02-22T14:41:54.185Z,13.35
2023-02-22T14:44:25.984Z,14.38
2023-02-22T14:46:55.835Z,14.15
2023-02-22T14:49:28.433Z,15.25
2023-02-22T14:51:59.728Z,15.27
2023-02-22T14:54:37.068Z,14.80
2023-02-22T14:57:21.567Z,14.55
2023-02-22T15:00:07.987Z,14.55
2023-02-22T15:02:41.474Z,14.40
2023-02-22T15:05:14.165Z,14.73
2023-02-22T15:07:50.925Z,14.02
2023-02-22T15:10:36.874Z,14.85
2023-02-22T15:13:09.559Z,16.08
2023-02-22T15:15:47.528Z,15.30
2023-02-22T15:18:20.507Z,15.63
2023-02-22T15:20:49.120Z,17.08
2023-02-22T15:23:16.787Z,15.90
2023-02-22T15:25:48.958Z,16.15
2023-02-22T15:28:17.618Z,15.60
2023-02-22T15:30:44.674Z,14.35
2023-02-22T15:33:16.206Z,15.35
2023-02-22T15:35:43.237Z,14.93
2023-02-22T15:38:12.582Z,16.00
2023-02-22T15:40:43.242Z,14.98
2023-02-22T15:43:24.629Z,15.43
2023-02-22T15:45:52.129Z,15.90
2023-02-22T15:48:19.246Z,16.75
2023-02-22T15:51:09.335Z,16.42
2023-02-22T15:53:46.284Z,15.52
2023-02-22T15:56:16.832Z,15.75
2023-02-22T15:58:46.132Z,16.75
2023-02-22T16:01:18.577Z,17.00
2023-02-22T16:03:49.319Z,16.23
2023-02-22T16:06:37.859Z,15.93
2023-02-22T16:09:23.044Z,17.27
2023-02-22T16:11:49.860Z,18.60
2023-02-22T16:14:25.404Z,17.75
2023-02-22T16:17:13.956Z,18.48
2023-02-22T16:19:42.741Z,18.20
2023-02-22T16:22:26.687Z,19.42
2023-02-22T16:24:54.570Z,17.48
2023-02-22T16:27:24.563Z,18.15
2023-02-22T16:30:18.740Z,18.80
2023-02-22T16:32:49.541Z,19.30
2023-02-22T16:35:19.489Z,19.02
2023-02-22T16:37:51.337Z,19.08
2023-02-22T16:40:34.474Z,19.50
2023-02-22T16:43:11.719Z,20.00
2023-02-22T16:45:39.303Z,19.50
2023-02-22T16:48:22.356Z,19.02
2023-02-22T16:50:51.490Z,18.67
2023-02-22T16:53:20.744Z,18.88
2023-02-22T16:55:48.943Z,19.77
2023-02-22T16:58:17.324Z,20.65
2023-02-22T17:00:43.846Z,21.20
2023-02-22T17:03:15.378Z,19.88
2023-02-22T17:05:42.178Z,22.02
2023-02-22T17:08:08.700Z,21.55
2023-02-22T17:10:35.761Z,20.75
2023-02-22T17:13:16.369Z,20.13
2023-02-22T17:15:46.815Z,21.95
2023-02-22T17:18:17.116Z,20.75
2023-02-22T17:20:45.008Z,21.30
2023-02-22T17:23:12.405Z,21.70
2023-02-22T17:25:41.947Z,23.10
2023-02-22T17:28:09.074Z,22.10
2023-02-22T17:30:36.381Z,21.08
2023-02-22T17:33:06.463Z,21.80
2023-02-22T17:35:36.902Z,22.98
2023-02-22T17:38:06.171Z,22.33
2023-02-22T17:40:35.186Z,21.33
2023-02-22T17:43:02.131Z,23.00
2023-02-22T17:45:29.627Z,22.52
2023-02-22T17:47:59.022Z,22.55
2023-02-22T17:50:26.344Z,21.15
2023-02-22T17:52:53.251Z,22.52
2023-02-22T17:55:21.163Z,20.77
2023-02-22T17:57:51.991Z,21.73
2023-02-22T18:00:32.855Z,22.27
2023-02-22T18:03:01.878Z,23.13
2023-02-22T18:05:29.070Z,24.08
2023-02-22T18:07:55.775Z,22.30
2023-02-22T18:10:22.489Z,23.05
2023-02-22T18:12:49.188Z,23.17
2023-02-22T18:15:18.610Z,22.77
2023-02-22T18:17:46.175Z,21.95
2023-02-22T18:20:14.389Z,22.38
2023-02-22T18:22:43.182Z,22.35
2023-02-22T18:25:11.101Z,22.08
2023-02-22T18:27:37.743Z,21.80
2023-02-22T18:30:05.991Z,25.42
2023-02-22T18:32:33.473Z,22.70
2023-02-22T18:35:00.335Z,22.42
2023-02-22T18:37:29.905Z,27.60
2023-02-22T18:39:57.682Z,30.98
2023-02-22T18:42:25.836Z,24.92
2023-02-22T18:44:54.321Z,22.20
2023-02-22T18:47:22.066Z,21.77
2023-02-22T18:49:48.862Z,21.67
2023-02-22T18:52:15.777Z,23.02
2023-02-22T18:54:45.758Z,23.10
2023-02-22T18:57:12.600Z,21.63
2023-02-22T18:59:40.145Z,25.00
2023-02-22T19:02:12.832Z,22.00
2023-02-22T19:04:39.659Z,21.65
2023-02-22T19:07:06.821Z,20.73
2023-02-22T19:09:33.362Z,20.10
2023-02-22T19:11:59.879Z,21.88
2023-02-22T19:14:26.587Z,21.25
2023-02-22T19:16:56.451Z,20.60
2023-02-22T19:19:26.101Z,21.90
2023-02-22T19:21:53.133Z,20.25
2023-02-22T19:24:20.482Z,21.40
2023-02-22T19:26:57.342Z,21.58
2023-02-22T19:29:24.061Z,20.38
2023-02-22T19:31:51.719Z,21.20
2023-02-22T19:34:21.780Z,21.73
2023-02-22T19:36:48.662Z,22.88
2023-02-22T19:39:17.460Z,23.10
2023-02-22T19:41:47.400Z,23.00
2023-02-22T19:44:14.122Z,22.73
2023-02-22T19:46:40.789Z,23.15
2023-02-22T19:49:07.751Z,23.23
2023-02-22T19:51:34.466Z,23.55
2023-02-22T19:54:11.014Z,23.67
2023-02-22T19:56:38.196Z,22.73
2023-02-22T19:59:13.300Z,23.30
2023-02-22T20:01:45.297Z,21.88
2023-02-22T20:04:18.317Z,23.27
2023-02-22T20:06:45.933Z,24.70
2023-02-22T20:09:16.675Z,23.08
2023-02-22T20:11:44.742Z,22.17
2023-02-22T20:14:23.451Z,22.15
2023-02-22T20:16:54.916Z,23.05
2023-02-22T20:19:26.717Z,23.95
2023-02-22T20:21:57.587Z,23.98
2023-02-22T20:24:25.150Z,23.05
2023-02-22T20:26:55.717Z,23.40
2023-02-22T20:29:29.405Z,23.25
2023-02-22T20:32:00.708Z,21.55
2023-02-22T20:34:31.220Z,22.67
2023-02-22T20:36:58.720Z,21.52
2023-02-22T20:39:25.427Z,20.52
2023-02-22T20:41:55.196Z,21.05
2023-02-22T20:44:22.043Z,20.80
2023-02-22T20:46:48.947Z,21.02
2023-02-22T20:49:18.926Z,19.50
2023-02-22T20:51:46.978Z,19.33
2023-02-22T20:54:14.244Z,19.55
2023-02-22T20:56:43.011Z,17.45
2023-02-22T20:59:13.306Z,17.95
2023-02-22T21:01:40.170Z,18.20
2023-02-22T21:04:09.926Z,18.48
2023-02-22T21:06:37.967Z,17.98
2023-02-22T21:09:07.392Z,19.35
2023-02-22T21:11:35.626Z,18.52
2023-02-22T21:14:02.806Z,18.42
2023-02-22T21:16:33.586Z,17.52
2023-02-22T21:19:03.015Z,17.40
2023-02-22T21:21:30.839Z,17.75
2023-02-22T21:24:02.221Z,16.27
2023-02-22T21:26:31.795Z,17.00
2023-02-22T21:29:00.962Z,18.35
2023-02-22T21:31:28.025Z,17.27
2023-02-22T21:33:56.982Z,18.48
2023-02-22T21:36:27.238Z,17.92
2023-02-22T21:38:59.901Z,17.27
2023-02-22T21:41:28.861Z,17.58
2023-02-22T21:43:57.533Z,18.95
2023-02-22T21:46:25.506Z,18.25
2023-02-22T21:48:52.205Z,19.10
2023-02-22T21:51:23.305Z,19.10
2023-02-22T21:53:52.469Z,20.45
2023-02-22T21:56:24.740Z,19.73
2023-02-22T21:58:59.504Z,19.88
2023-02-22T22:01:28.591Z,19.90
2023-02-22T22:03:59.977Z,19.50
2023-02-22T22:06:31.026Z,22.00
2023-02-22T22:09:00.228Z,20.95
2023-02-22T22:11:27.456Z,20.73
2023-02-22T22:13:57.475Z,21.73
2023-02-22T22:16:27.192Z,20.05
2023-02-22T22:18:54.506Z,21.95
2023-02-22T22:21:23.266Z,21.83
2023-02-22T22:23:54.515Z,21.15
2023-02-22T22:26:24.823Z,21.75
2023-02-22T22:28:57.653Z,21.45
2023-02-22T22:31:27.351Z,19.65
2023-02-22T22:33:57.513Z,20.55
2023-02-22T22:36:27.364Z,20.20
2023-02-22T22:38:59.315Z,19.48
2023-02-22T22:41:28.694Z,19.30
2023-02-22T22:43:57.857Z,19.65
2023-02-22T22:46:26.133Z,19.77
2023-02-22T22:48:53.343Z,18.02
2023-02-22T22:51:22.644Z,19.92
2023-02-22T22:53:51.956Z,19.20
2023-02-22T22:56:35.526Z,18.30
2023-02-22T22:59:14.619Z,18.60
2023-02-22T23:01:44.610Z,19.02
2023-02-22T23:04:16.700Z,18.27
2023-02-22T23:06:48.134Z,18.80
2023-02-22T23:09:14.640Z,17.83
2023-02-22T23:11:46.605Z,18.92
2023-02-22T23:14:21.847Z,19.90
2023-02-22T23:16:50.548Z,19.38
2023-02-22T23:19:19.087Z,20.05
2023-02-22T23:21:50.088Z,20.05
2023-02-22T23:24:19.759Z,19.77
2023-02-22T23:26:49.479Z,19.75
2023-02-22T23:29:18.427Z,19.75
2023-02-22T23:31:48.118Z,18.05
2023-02-22T23:34:16.936Z,18.27
2023-02-22T23:36:49.788Z,19.10
2023-02-22T23:39:22.268Z,18.33
2023-02-22T23:41:59.004Z,17.33
2023-02-22T23:44:27.123Z,18.10
2023-02-22T23:46:56.615Z,17.95
2023-02-22T23:49:26.308Z,17.90
2023-02-22T23:51:52.919Z,18.52
2023-02-22T23:54:20.621Z,17.50
2023-02-22T23:56:56.220Z,18.02
2023-02-22T23:59:24.926Z,17.83
